Liberal Mid-America Regional Airport Liberal US
ICAO: KLBL
IATA: LBL
Category: Medium
Scheduled Services: Yes

Elevation: 2885 ft
TransAlt. 18000 ft.

Airport Communications:
AWOS 3:118.375
KANSAS CITY CNTR:134
WICHITA RDO:122.4
CTAF/UNICOM:122.8

KLBL Zoom In..

If you have problems with the map follow the link
https://www.worldairports.se/pages/airport.php?
ICAO=KLBL

Runways:

(A) RW 04 length 5721 ft width 150 ft
---- / hdg 35

(B) RW 17 length 7105 ft width 100 ft
---- / hdg 170

(C) RW 22 length 5721 ft width 150 ft
---- / hdg 215

(D) RW 35 length 7105 ft width 100 ft
ILS 111.30 / hdg 350

Location; KLBL
Day. 17 / Time. 21.56 Zulu
* Altimeter: 29.72
* Temperature: 12° c. 53.6°f.
* Wind from: 190° Speed 17 kn with Gusts up to 23 kn.
Dewpoint: 08° c.
Visibility: 10 Statute Miles.
Clouds: Clear (automated report).

KLBL 172156Z AUTO 19017G23KT 10SM CLR 12/08 A2972 RMK AO2 PK WND 20028/2130 SLP069 T01220078


Wind From 190°
Speed 17 kn.

 
 
jpsmedia worldairports.se 2020   terms of use